Time;durP1;ratioP1;P1;durP2;ratioP2;P2;SDS_P1;SDS_P2;PMS_P1;PMS_P2;Temp;Humidity;BMP_temperature;BMP_pressure;BME280_temperature;BME280_humidity;BME280_pressure;Samples;Min_cycle;Max_cycle;Signal;HPM_P1;HPM_P2
2022/09/03 00:00:18;;;;;;;3.03;2.72;;;17.60;99.90;;;;;;5034405;28;20040;-70
2022/09/03 00:02:56;;;;;;;3.80;3.20;;;17.50;99.90;;;;;;5016338;28;20018;-74
2022/09/03 00:05:47;;;;;;;3.03;2.72;;;17.50;99.90;;;;;;5033985;28;20028;-70
2022/09/03 00:08:35;;;;;;;3.95;2.97;;;17.50;99.90;;;;;;5034001;28;20104;-73
2022/09/03 00:11:11;;;;;;;2.60;2.40;;;17.50;99.90;;;;;;5016497;28;20446;-73
2022/09/03 00:13:42;;;;;;;2.83;2.63;;;17.60;99.90;;;;;;5016265;28;20467;-73
2022/09/03 00:16:12;;;;;;;3.92;3.25;;;17.60;99.90;;;;;;5016231;28;20426;-71
2022/09/03 00:18:47;;;;;;;3.00;2.53;;;17.60;99.90;;;;;;5016017;28;20029;-71
2022/09/03 00:21:38;;;;;;;3.08;2.38;;;17.50;99.90;;;;;;5033693;28;20116;-72
2022/09/03 00:24:07;;;;;;;4.95;3.22;;;17.50;99.90;;;;;;5033924;28;20025;-72
2022/09/03 00:26:34;;;;;;;3.78;2.88;;;17.60;99.90;;;;;;5033697;28;20022;-74
2022/09/03 00:29:18;;;;;;;4.07;3.35;;;17.50;99.90;;;;;;5016000;28;20026;-70
2022/09/03 00:31:55;;;;;;;4.35;3.30;;;17.50;99.90;;;;;;5015979;28;20083;-73
2022/09/03 00:34:36;;;;;;;3.55;3.13;;;17.50;99.90;;;;;;5033531;28;20376;-71
2022/09/03 00:37:02;;;;;;;3.30;2.83;;;17.50;99.90;;;;;;5015952;28;20097;-71
2022/09/03 00:39:28;;;;;;;2.53;2.30;;;17.50;99.90;;;;;;5033387;28;20105;-72
2022/09/03 00:42:12;;;;;;;2.80;2.60;;;17.50;99.90;;;;;;5033673;28;20045;-70
2022/09/03 00:45:10;;;;;;;2.65;2.40;;;17.60;99.90;;;;;;5033442;28;20026;-73
2022/09/03 00:47:39;;;;;;;3.10;2.80;;;17.60;99.90;;;;;;5033525;28;20028;-70
2022/09/03 00:50:49;;;;;;;3.30;2.70;;;17.50;99.90;;;;;;5033383;28;20396;-71
2022/09/03 00:53:28;;;;;;;3.28;2.75;;;17.50;99.90;;;;;;5033240;28;20075;-71
2022/09/03 00:56:18;;;;;;;4.30;3.03;;;17.50;99.90;;;;;;5015550;28;20407;-74
2022/09/03 00:58:57;;;;;;;4.25;3.17;;;17.40;99.90;;;;;;5033405;28;20029;-73
2022/09/03 01:01:39;;;;;;;4.38;3.15;;;17.40;99.90;;;;;;5015515;28;20415;-73
2022/09/03 01:04:23;;;;;;;3.10;2.60;;;17.40;99.90;;;;;;5033448;28;20033;-73
2022/09/03 01:06:57;;;;;;;;;;;17.40;99.90;;;;;;5033683;28;20052;-72
2022/09/03 01:09:57;;;;;;;2.97;2.63;;;17.40;99.90;;;;;;5033032;28;19905;-74
2022/09/03 01:13:04;;;;;;;2.85;2.60;;;17.40;99.90;;;;;;5033290;28;20147;-73
2022/09/03 01:15:51;;;;;;;2.30;2.10;;;17.50;99.90;;;;;;5033112;28;20040;-70
2022/09/03 01:18:30;;;;;;;4.40;3.28;;;17.50;99.90;;;;;;5015260;28;20384;-71
2022/09/03 01:21:37;;;;;;;3.95;3.25;;;17.50;99.90;;;;;;5033146;28;20522;-70
2022/09/03 01:24:42;;;;;;;2.80;2.60;;;17.40;99.90;;;;;;5033048;28;20017;-70
2022/09/03 01:27:42;;;;;;;3.00;2.60;;;17.30;99.90;;;;;;5033053;28;20032;-70
2022/09/03 01:30:16;;;;;;;4.63;2.67;;;17.30;99.90;;;;;;5033014;28;20045;-72
2022/09/03 01:33:08;;;;;;;3.40;3.10;;;17.40;99.90;;;;;;5036851;28;20163;-71
2022/09/03 01:35:37;;;;;;;3.00;2.70;;;17.40;99.90;;;;;;5037385;28;20025;-70
2022/09/03 01:38:22;;;;;;;3.78;3.00;;;17.40;99.90;;;;;;5036798;28;20079;-74
2022/09/03 01:42:12;;;;;;;4.75;3.33;;;17.30;99.90;;;;;;5018975;28;20447;-74
2022/09/03 01:44:26;;;;;;;4.68;3.45;;;17.30;99.90;;;;;;5036597;28;20026;-74
2022/09/03 01:47:07;;;;;;;3.65;3.03;;;17.30;99.90;;;;;;5035755;28;20038;-73
2022/09/03 01:50:16;;;;;;;4.40;2.80;;;17.30;99.90;;;;;;5018989;28;20044;-73
2022/09/03 01:52:51;;;;;;;2.83;2.63;;;17.30;99.90;;;;;;4982095;28;20038;-74
2022/09/03 01:55:35;;;;;;;2.97;2.70;;;17.30;99.90;;;;;;5018439;28;20045;-72
2022/09/03 01:58:07;;;;;;;;;;;17.30;99.90;;;;;;5019148;28;20025;-72
2022/09/03 02:00:36;;;;;;;4.22;3.08;;;17.30;99.90;;;;;;5018578;28;20358;-73
2022/09/03 02:03:05;;;;;;;3.03;2.72;;;17.30;99.90;;;;;;5036294;28;20048;-70
2022/09/03 02:05:31;;;;;;;4.90;3.10;;;17.30;99.90;;;;;;5036175;28;20029;-72
2022/09/03 02:08:03;;;;;;;5.03;2.67;;;17.30;99.90;;;;;;5018475;28;20386;-70
2022/09/03 02:10:42;;;;;;;3.80;2.60;;;17.30;99.90;;;;;;5018388;28;20034;-73
2022/09/03 02:13:25;;;;;;;2.65;2.45;;;17.40;99.90;;;;;;5036169;28;20045;-72
2022/09/03 02:15:55;;;;;;;2.88;2.30;;;17.30;99.90;;;;;;5018368;28;20479;-73
2022/09/03 02:18:32;;;;;;;2.90;2.17;;;17.40;99.90;;;;;;5035967;28;20443;-73
2022/09/03 02:20:59;;;;;;;2.35;2.15;;;17.40;99.90;;;;;;5036031;28;20484;-71
2022/09/03 02:23:27;;;;;;;2.85;2.40;;;17.40;99.90;;;;;;5035831;28;20105;-71
2022/09/03 02:25:56;;;;;;;2.50;2.30;;;17.40;99.90;;;;;;5035926;28;20072;-73
2022/09/03 02:28:22;;;;;;;2.10;1.90;;;17.40;99.90;;;;;;5035816;28;20076;-71
2022/09/03 02:30:48;;;;;;;2.72;2.03;;;17.50;99.90;;;;;;5017897;28;20124;-72
2022/09/03 02:33:14;;;;;;;2.53;1.85;;;17.50;99.90;;;;;;5035699;28;20101;-73
2022/09/03 02:35:41;;;;;;;2.78;2.20;;;17.50;99.90;;;;;;5017923;28;20029;-71
2022/09/03 02:38:15;;;;;;;4.28;3.00;;;17.50;99.90;;;;;;5035682;28;20021;-70
2022/09/03 02:40:41;;;;;;;3.22;2.92;;;17.50;99.90;;;;;;5035547;28;20026;-74
2022/09/03 02:43:13;;;;;;;3.22;2.92;;;17.40;99.90;;;;;;5034466;28;20025;-70
2022/09/03 02:45:45;;;;;;;3.22;2.92;;;17.40;99.90;;;;;;5017757;28;20166;-72
2022/09/03 02:48:11;;;;;;;5.20;3.65;;;17.40;99.90;;;;;;5017796;28;20388;-69
2022/09/03 02:50:41;;;;;;;4.68;3.72;;;17.50;99.90;;;;;;5017542;28;20403;-70
2022/09/03 02:53:07;;;;;;;6.45;4.20;;;17.40;99.90;;;;;;5035475;28;20108;-72
2022/09/03 02:55:33;;;;;;;3.97;3.30;;;17.40;99.90;;;;;;5035095;28;20049;-74
2022/09/03 02:57:59;;;;;;;3.38;3.08;;;17.30;99.90;;;;;;5017654;28;20387;-70
2022/09/03 03:00:26;;;;;;;3.58;3.28;;;17.40;99.90;;;;;;5035312;28;20122;-72
2022/09/03 03:02:53;;;;;;;4.25;3.63;;;17.50;99.90;;;;;;5035256;28;20078;-71
2022/09/03 03:05:27;;;;;;;7.07;4.63;;;17.50;99.90;;;;;;5035035;28;20025;-74
2022/09/03 03:07:54;;;;;;;7.18;4.25;;;17.50;99.90;;;;;;5035076;28;20033;-71
2022/09/03 03:10:20;;;;;;;6.50;5.20;;;17.40;99.90;;;;;;5017796;28;20487;-74
2022/09/03 03:12:46;;;;;;;6.03;5.43;;;17.40;99.90;;;;;;5017326;28;20021;-71
2022/09/03 03:15:11;;;;;;;9.27;6.45;;;17.30;99.90;;;;;;5016981;28;20032;-71
2022/09/03 03:17:37;;;;;;;9.40;6.35;;;17.30;99.90;;;;;;5034853;28;20021;-72
2022/09/03 03:20:03;;;;;;;5.63;4.85;;;17.20;99.90;;;;;;5035019;28;20415;-72
2022/09/03 03:22:29;;;;;;;5.30;4.80;;;17.20;99.90;;;;;;5017157;28;20079;-72
2022/09/03 03:24:56;;;;;;;4.70;3.90;;;17.20;99.90;;;;;;5034778;28;20026;-72
2022/09/03 03:27:22;;;;;;;5.47;3.80;;;17.30;99.90;;;;;;5034603;28;20056;-74
2022/09/03 03:29:49;;;;;;;4.40;3.75;;;17.30;99.90;;;;;;5034683;28;20030;-71
2022/09/03 03:32:15;;;;;;;3.65;3.00;;;17.30;99.90;;;;;;5034757;28;20021;-71
2022/09/03 03:34:40;;;;;;;5.30;3.60;;;17.30;99.90;;;;;;5034673;28;20468;-75
2022/09/03 03:37:06;;;;;;;3.83;3.45;;;17.40;99.90;;;;;;5034548;28;20025;-70
2022/09/03 03:39:32;;;;;;;7.60;3.75;;;17.30;99.90;;;;;;5034458;28;20019;-73
2022/09/03 03:41:57;;;;;;;5.25;3.50;;;17.30;99.90;;;;;;5034777;28;20021;-70
2022/09/03 03:44:23;;;;;;;6.18;3.40;;;17.30;99.90;;;;;;5034505;28;20104;-71
2022/09/03 03:46:48;;;;;;;5.50;3.70;;;17.30;99.90;;;;;;5016726;28;20029;-70
2022/09/03 03:49:14;;;;;;;4.07;3.53;;;17.30;99.90;;;;;;5034314;28;20026;-72
2022/09/03 03:51:40;;;;;;;6.03;3.42;;;17.30;99.90;;;;;;5016444;28;20033;-72
2022/09/03 03:54:06;;;;;;;3.88;2.90;;;17.30;99.90;;;;;;5034178;28;20022;-73
2022/09/03 03:56:32;;;;;;;5.13;3.65;;;17.30;99.90;;;;;;5034142;28;20056;-70
2022/09/03 03:58:58;;;;;;;6.47;4.53;;;17.30;99.90;;;;;;5034209;28;20028;-70
2022/09/03 04:01:26;;;;;;;4.05;3.60;;;17.30;99.90;;;;;;5034125;28;20036;-70
2022/09/03 04:03:54;;;;;;;5.65;3.20;;;17.30;99.90;;;;;;5016308;28;20471;-71
2022/09/03 04:06:20;;;;;;;4.22;3.45;;;17.30;99.90;;;;;;5034161;28;20025;-72
2022/09/03 04:08:48;;;;;;;7.97;4.38;;;17.30;99.90;;;;;;5034087;28;20444;-72
2022/09/03 04:11:17;;;;;;;4.38;3.42;;;17.30;99.90;;;;;;5033767;28;20514;-73
2022/09/03 04:13:45;;;;;;;4.05;3.42;;;17.20;99.90;;;;;;5033922;28;20092;-72
2022/09/03 04:16:17;;;;;;;6.88;4.03;;;17.30;99.90;;;;;;5033926;28;20017;-70
2022/09/03 04:18:43;;;;;;;7.63;4.72;;;17.30;99.90;;;;;;5033757;28;20021;-70
2022/09/03 04:21:18;;;;;;;10.27;5.25;;;17.30;99.90;;;;;;5033753;28;20084;-73
2022/09/03 04:23:45;;;;;;;12.82;6.35;;;17.30;99.90;;;;;;5033778;28;20049;-71
2022/09/03 04:26:16;;;;;;;8.48;4.85;;;17.30;99.90;;;;;;5015933;28;20068;-73
2022/09/03 04:28:44;;;;;;;6.38;5.13;;;17.20;99.90;;;;;;5016164;28;20560;-73
2022/09/03 04:31:12;;;;;;;10.65;5.22;;;17.30;99.90;;;;;;5033635;28;20510;-70
2022/09/03 04:33:38;;;;;;;8.55;4.38;;;17.30;99.90;;;;;;5033661;28;20182;-72
2022/09/03 04:36:16;;;;;;;6.43;4.35;;;17.30;99.90;;;;;;5015864;28;20392;-75
2022/09/03 04:38:43;;;;;;;10.77;5.38;;;17.30;99.90;;;;;;5015916;28;20472;-72
2022/09/03 04:41:11;;;;;;;6.95;4.45;;;17.30;99.90;;;;;;5033471;28;20030;-71
2022/09/03 04:43:37;;;;;;;6.45;4.10;;;17.30;99.90;;;;;;5033837;28;20357;-70
2022/09/03 04:46:05;;;;;;;6.07;4.28;;;17.40;99.90;;;;;;5033618;28;20075;-72
2022/09/03 04:48:35;;;;;;;9.15;5.47;;;17.30;99.90;;;;;;5016289;28;20032;-71
2022/09/03 04:51:22;;;;;;;12.90;6.90;;;17.40;99.90;;;;;;5033367;28;20033;-71
2022/09/03 04:53:53;;;;;;;17.05;9.95;;;17.40;99.90;;;;;;5033360;28;20021;-70
2022/09/03 04:56:21;;;;;;;12.77;8.75;;;17.30;99.90;;;;;;5033234;28;20053;-71
2022/09/03 04:58:48;;;;;;;10.65;7.05;;;17.10;99.90;;;;;;5033367;28;20056;-73
2022/09/03 05:01:20;;;;;;;11.90;6.65;;;17.10;99.90;;;;;;5015533;28;20026;-71
2022/09/03 05:03:46;;;;;;;9.63;5.57;;;17.20;99.90;;;;;;5015572;28;20388;-71
2022/09/03 05:06:15;;;;;;;7.80;5.82;;;17.30;99.90;;;;;;5035282;28;20029;-72
2022/09/03 05:08:42;;;;;;;8.55;6.43;;;17.30;99.90;;;;;;5037462;28;20022;-73
2022/09/03 05:11:08;;;;;;;6.75;5.45;;;17.40;99.90;;;;;;5037221;28;20030;-72
2022/09/03 05:13:35;;;;;;;14.82;7.63;;;17.50;99.90;;;;;;5037210;28;20065;-71
2022/09/03 05:16:06;;;;;;;14.00;8.65;;;17.50;99.90;;;;;;5037123;28;20468;-70
2022/09/03 05:18:34;;;;;;;8.15;6.72;;;17.60;99.90;;;;;;5037168;28;20379;-71
2022/09/03 05:21:11;;;;;;;15.18;7.60;;;17.60;99.90;;;;;;5037216;28;20021;-70
2022/09/03 05:23:39;;;;;;;22.48;12.13;;;17.60;99.90;;;;;;5037276;28;20024;-72
2022/09/03 05:26:08;;;;;;;16.35;10.40;;;17.50;99.90;;;;;;5037242;28;20148;-73
2022/09/03 05:28:35;;;;;;;17.20;10.35;;;17.40;99.90;;;;;;5019274;28;20040;-70
2022/09/03 05:31:09;;;;;;;10.02;8.10;;;17.50;99.90;;;;;;5036830;28;20032;-72
2022/09/03 05:33:37;;;;;;;12.70;8.98;;;17.50;99.90;;;;;;5036812;28;20030;-71
2022/09/03 05:36:05;;;;;;;13.25;8.95;;;17.60;99.90;;;;;;5037114;28;20028;-74
2022/09/03 05:38:31;;;;;;;16.10;9.30;;;17.80;99.90;;;;;;5019121;28;20030;-71
2022/09/03 05:41:05;;;;;;;12.48;8.57;;;17.80;99.90;;;;;;5036864;28;20030;-73
2022/09/03 05:43:32;;;;;;;13.10;9.95;;;17.80;99.90;;;;;;5018994;28;20316;-72
2022/09/03 05:46:05;;;;;;;11.38;7.65;;;17.80;99.90;;;;;;5036960;28;20100;-74
2022/09/03 05:48:33;;;;;;;11.48;7.85;;;17.80;99.90;;;;;;5036648;28;20075;-71
2022/09/03 05:51:07;;;;;;;15.13;10.20;;;17.80;99.90;;;;;;5036576;28;20116;-72
2022/09/03 05:53:35;;;;;;;19.77;11.65;;;17.90;99.90;;;;;;5018794;28;20057;-72
2022/09/03 05:56:04;;;;;;;24.05;13.50;;;17.80;99.90;;;;;;5036332;28;20478;-73
2022/09/03 05:58:35;;;;;;;13.32;10.50;;;17.70;99.90;;;;;;5018664;28;20025;-73
2022/09/03 06:01:16;;;;;;;10.90;9.18;;;17.70;99.90;;;;;;5018744;28;20031;-73
2022/09/03 06:03:43;;;;;;;17.65;11.45;;;17.70;99.90;;;;;;5018588;28;20498;-71
2022/09/03 06:06:09;;;;;;;11.45;9.95;;;17.80;99.90;;;;;;5036505;28;20104;-70
2022/09/03 06:08:39;;;;;;;15.82;10.43;;;17.80;99.90;;;;;;5018558;28;20029;-70
2022/09/03 06:11:05;;;;;;;18.05;13.02;;;17.80;99.90;;;;;;5018468;28;20041;-73
2022/09/03 06:13:32;;;;;;;22.33;16.67;;;17.90;99.90;;;;;;5036016;28;20527;-71
2022/09/03 06:16:08;;;;;;;15.63;12.93;;;17.90;99.90;;;;;;5018381;28;20059;-72
2022/09/03 06:18:34;;;;;;;18.65;14.18;;;17.80;99.90;;;;;;5018283;28;20439;-72
2022/09/03 06:21:03;;;;;;;17.20;13.10;;;17.90;99.90;;;;;;5036057;28;20033;-74
2022/09/03 06:23:29;;;;;;;19.48;14.35;;;17.90;99.90;;;;;;5018219;28;20034;-73
2022/09/03 06:26:07;;;;;;;13.85;11.68;;;17.90;99.90;;;;;;5018222;28;20021;-71
2022/09/03 06:28:35;;;;;;;12.73;11.38;;;18.00;99.90;;;;;;5018258;28;20082;-73
2022/09/03 06:31:02;;;;;;;21.20;15.05;;;18.10;99.90;;;;;;5035825;28;20026;-71
2022/09/03 06:33:30;;;;;;;14.35;12.32;;;18.20;99.90;;;;;;5035991;28;20021;-74
2022/09/03 06:35:58;;;;;;;14.63;11.18;;;18.10;99.90;;;;;;5017961;28;20530;-71
2022/09/03 06:38:26;;;;;;;15.70;12.15;;;18.20;99.90;;;;;;5035764;28;20017;-74
2022/09/03 06:40:55;;;;;;;16.50;12.82;;;18.40;99.90;;;;;;5035798;28;20472;-69
2022/09/03 06:43:22;;;;;;;15.25;12.55;;;18.40;99.90;;;;;;5035483;28;20022;-73
2022/09/03 06:46:02;;;;;;;13.18;11.75;;;18.50;99.90;;;;;;5017821;28;20017;-70
2022/09/03 06:48:31;;;;;;;14.23;12.52;;;18.60;99.90;;;;;;5035587;28;20029;-71
2022/09/03 06:50:58;;;;;;;19.33;14.93;;;18.70;99.90;;;;;;5035627;28;20476;-70
2022/09/03 06:53:26;;;;;;;13.00;11.23;;;18.90;99.90;;;;;;5035346;28;20049;-73
2022/09/03 06:56:00;;;;;;;14.38;11.82;;;19.10;99.90;;;;;;5035120;28;20060;-72
2022/09/03 06:58:31;;;;;;;15.73;11.98;;;19.50;99.90;;;;;;5035350;28;20025;-71
2022/09/03 07:01:07;;;;;;;14.15;10.68;;;19.80;99.90;;;;;;5035114;28;20491;-71
2022/09/03 07:03:34;;;;;;;13.43;11.20;;;20.10;99.90;;;;;;5017383;28;20525;-72
2022/09/03 07:06:01;;;;;;;12.20;10.93;;;20.20;99.90;;;;;;5035216;28;20100;-71
2022/09/03 07:08:29;;;;;;;13.18;10.93;;;20.20;99.90;;;;;;5035127;28;20040;-70
2022/09/03 07:10:54;;;;;;;12.32;10.88;;;20.30;99.90;;;;;;5017124;28;20487;-71
2022/09/03 07:13:20;;;;;;;13.63;11.25;;;20.40;99.90;;;;;;5034844;28;20028;-73
2022/09/03 07:15:46;;;;;;;13.90;11.38;;;20.60;99.90;;;;;;5035109;28;20022;-72
2022/09/03 07:18:11;;;;;;;14.32;11.35;;;20.70;99.90;;;;;;5034944;28;20029;-71
2022/09/03 07:20:37;;;;;;;11.60;10.48;;;20.70;99.90;;;;;;5034922;28;20093;-71
2022/09/03 07:23:03;;;;;;;11.70;10.43;;;21.10;99.90;;;;;;5017082;28;20025;-71
2022/09/03 07:25:30;;;;;;;16.23;12.52;;;21.50;99.90;;;;;;5017002;28;20096;-74
2022/09/03 07:27:57;;;;;;;12.68;9.98;;;22.00;99.90;;;;;;5034377;28;20053;-71
2022/09/03 07:30:25;;;;;;;10.90;9.73;;;22.50;99.90;;;;;;5034381;28;20116;-71
2022/09/03 07:32:52;;;;;;;10.30;9.30;;;22.90;99.90;;;;;;5034715;28;20022;-71
2022/09/03 07:35:18;;;;;;;10.48;9.48;;;23.20;99.90;;;;;;5034491;28;20098;-74
2022/09/03 07:37:44;;;;;;;12.02;10.38;;;23.30;99.90;;;;;;5034559;28;20064;-71
2022/09/03 07:40:10;;;;;;;10.77;8.93;;;24.30;99.90;;;;;;5017523;28;20057;-71
2022/09/03 07:42:38;;;;;;;10.10;8.02;;;25.50;99.90;;;;;;5016687;28;20056;-73
2022/09/03 07:45:08;;;;;;;8.90;7.85;;;26.80;97.90;;;;;;5034512;28;20032;-71
2022/09/03 07:47:35;;;;;;;9.15;8.23;;;27.40;94.00;;;;;;5034573;28;20026;-70
2022/09/03 07:50:02;;;;;;;8.77;7.63;;;26.90;94.00;;;;;;5034413;28;20037;-73
2022/09/03 07:52:28;;;;;;;8.68;7.07;;;26.70;93.50;;;;;;5034219;28;20029;-72
2022/09/03 07:54:53;;;;;;;9.07;7.90;;;27.50;93.20;;;;;;5034107;28;20050;-71
2022/09/03 07:57:19;;;;;;;10.73;8.77;;;28.50;91.70;;;;;;5034066;28;20032;-71
2022/09/03 07:59:45;;;;;;;11.10;9.25;;;28.50;90.40;;;;;;5034165;28;20068;-73
2022/09/03 08:02:10;;;;;;;11.13;8.70;;;27.90;91.20;;;;;;5033987;28;20075;-72
2022/09/03 08:04:37;;;;;;;9.98;8.88;;;27.50;90.90;;;;;;5034030;28;20526;-73
2022/09/03 08:07:04;;;;;;;11.48;9.13;;;27.20;90.90;;;;;;5033960;28;20029;-70
2022/09/03 08:09:31;;;;;;;10.90;8.90;;;27.70;91.60;;;;;;5016006;28;20124;-73
2022/09/03 08:11:57;;;;;;;11.15;10.05;;;29.20;90.70;;;;;;5033915;28;20021;-73
2022/09/03 08:14:23;;;;;;;11.65;9.15;;;29.70;87.50;;;;;;5033770;28;20021;-71
2022/09/03 08:16:49;;;;;;;8.88;8.00;;;30.00;85.90;;;;;;5016055;28;20033;-71
2022/09/03 08:19:17;;;;;;;8.10;7.32;;;29.90;82.20;;;;;;5033643;28;20022;-70
2022/09/03 08:21:43;;;;;;;8.77;7.90;;;29.70;81.90;;;;;;5033681;28;20025;-71
2022/09/03 08:24:10;;;;;;;7.18;6.57;;;29.50;80.50;;;;;;5033795;28;20435;-72
2022/09/03 08:26:41;;;;;;;7.22;6.53;;;29.50;79.50;;;;;;5015922;28;20029;-73
2022/09/03 08:29:08;;;;;;;7.28;6.57;;;30.90;80.60;;;;;;5033598;28;20357;-71
2022/09/03 08:31:35;;;;;;;9.30;8.20;;;31.20;76.80;;;;;;5015641;28;20033;-69
2022/09/03 08:34:05;;;;;;;7.40;6.70;;;30.60;73.40;;;;;;5033706;28;20026;-70
2022/09/03 08:36:32;;;;;;;7.90;6.97;;;29.90;76.40;;;;;;5033467;28;20377;-69
2022/09/03 08:39:03;;;;;;;8.65;7.63;;;29.60;76.40;;;;;;5033450;28;20035;-69
2022/09/03 08:41:50;;;;;;;11.48;8.13;;;29.40;77.60;;;;;;5032460;28;20644;-69
2022/09/03 08:44:34;;;;;;;7.35;6.65;;;29.40;77.70;;;;;;5033509;28;20476;-70
2022/09/03 08:47:04;;;;;;;7.00;6.32;;;29.40;76.50;;;;;;5033439;28;20468;-68
2022/09/03 08:49:39;;;;;;;6.20;4.88;;;29.90;77.50;;;;;;5033248;28;20021;-71
2022/09/03 08:52:19;;;;;;;6.00;5.45;;;29.80;72.20;;;;;;5033525;28;20021;-70
2022/09/03 08:54:45;;;;;;;5.85;5.35;;;29.10;73.10;;;;;;5033101;28;20100;-69
2022/09/03 08:57:13;;;;;;;7.25;6.15;;;28.50;75.00;;;;;;5033191;28;20022;-69
2022/09/03 08:59:38;;;;;;;6.07;4.82;;;27.70;73.70;;;;;;5033478;28;20037;-73
2022/09/03 09:02:24;;;;;;;4.70;4.20;;;27.20;78.30;;;;;;5015650;28;20132;-71
2022/09/03 09:04:49;;;;;;;5.30;4.65;;;27.50;78.60;;;;;;5033196;28;20041;-72
2022/09/03 09:07:31;;;;;;;5.25;4.80;;;28.00;78.50;;;;;;5033071;28;20399;-71
2022/09/03 09:10:14;;;;;;;6.53;5.93;;;28.50;79.00;;;;;;5033150;28;20451;-68
2022/09/03 09:12:46;;;;;;;;;;;29.10;78.40;;;;;;5033477;28;20025;-71
2022/09/03 09:15:49;;;;;;;7.38;6.72;;;29.30;75.60;;;;;;5015196;28;19909;-71
2022/09/03 09:18:22;;;;;;;7.88;7.07;;;28.90;74.80;;;;;;5033089;28;20013;-70
2022/09/03 09:20:53;;;;;;;7.32;5.43;;;28.60;74.00;;;;;;5033033;28;20061;-71
2022/09/03 09:23:28;;;;;;;6.38;5.88;;;28.50;75.20;;;;;;5015248;28;20458;-71
2022/09/03 09:25:56;;;;;;;5.80;5.30;;;28.60;74.40;;;;;;5033244;28;20027;-72
2022/09/03 09:28:32;;;;;;;5.72;5.22;;;28.30;76.10;;;;;;5033048;28;20555;-72
2022/09/03 09:31:03;;;;;;;5.68;5.07;;;28.40;74.20;;;;;;5032899;28;20038;-70
2022/09/03 09:33:31;;;;;;;5.82;5.25;;;28.20;74.30;;;;;;5015159;28;20080;-73
2022/09/03 09:36:02;;;;;;;4.82;4.43;;;28.50;75.20;;;;;;5033048;28;20407;-72
2022/09/03 09:38:31;;;;;;;4.63;4.13;;;28.80;73.10;;;;;;5032936;28;20026;-72
2022/09/03 09:41:14;;;;;;;4.53;4.13;;;28.80;74.20;;;;;;5032884;28;20041;-72
2022/09/03 09:43:40;;;;;;;4.07;3.75;;;28.70;75.90;;;;;;5032898;28;20074;-71
2022/09/03 09:46:38;;;;;;;4.47;4.07;;;28.40;76.10;;;;;;5015180;28;20021;-72
2022/09/03 09:49:21;;;;;;;4.25;3.85;;;28.20;74.40;;;;;;5013377;28;20034;-69
2022/09/03 09:51:46;;;;;;;;;;;28.00;75.10;;;;;;5016996;28;20080;-71
2022/09/03 09:54:18;;;;;;;4.70;4.30;;;28.00;76.30;;;;;;5036473;28;19905;-70
2022/09/03 09:56:45;;;;;;;3.88;3.58;;;28.10;75.10;;;;;;5036241;28;20116;-70
2022/09/03 09:59:14;;;;;;;3.65;3.35;;;28.20;76.60;;;;;;5036236;28;20026;-72
2022/09/03 10:01:44;;;;;;;3.45;3.15;;;28.20;73.30;;;;;;5036538;28;20130;-71
2022/09/03 10:04:12;;;;;;;3.83;3.50;;;28.20;75.40;;;;;;5036222;28;20022;-72
2022/09/03 10:06:55;;;;;;;3.85;3.55;;;28.10;72.40;;;;;;5036178;28;20018;-72
2022/09/03 10:09:24;;;;;;;3.95;3.65;;;27.90;72.70;;;;;;5036075;28;20017;-73
2022/09/03 10:12:22;;;;;;;3.47;3.20;;;27.60;74.40;;;;;;5036287;28;20037;-70
2022/09/03 10:15:02;;;;;;;4.40;3.47;;;27.30;74.20;;;;;;5018327;28;20116;-71
2022/09/03 10:18:07;;;;;;;3.47;3.17;;;27.20;76.20;;;;;;5035910;28;20446;-72
2022/09/03 10:21:09;;;;;;;3.13;2.92;;;27.20;74.10;;;;;;5035947;28;20032;-70
2022/09/03 10:24:04;;;;;;;3.35;3.10;;;27.30;74.20;;;;;;4937900;28;20069;-71
2022/09/03 10:26:31;;;;;;;3.60;3.30;;;27.30;74.10;;;;;;4999944;28;20033;-71
2022/09/03 10:29:01;;;;;;;3.60;3.30;;;27.10;73.70;;;;;;5018087;28;20029;-70
2022/09/03 10:31:49;;;;;;;2.80;2.60;;;26.70;75.30;;;;;;5035627;28;20033;-71
2022/09/03 10:34:32;;;;;;;3.13;2.92;;;26.60;78.00;;;;;;5035713;28;20026;-70
2022/09/03 10:37:21;;;;;;;2.85;2.65;;;26.50;77.70;;;;;;5018004;28;20029;-73
2022/09/03 10:39:57;;;;;;;3.70;3.40;;;26.50;76.20;;;;;;5034956;28;20033;-72
2022/09/03 10:42:49;;;;;;;3.85;3.03;;;26.40;76.50;;;;;;5035684;28;20018;-70
2022/09/03 10:45:38;;;;;;;3.33;3.00;;;26.30;73.30;;;;;;5035080;28;20481;-71
2022/09/03 10:48:39;;;;;;;3.53;3.22;;;25.80;75.30;;;;;;5035457;28;20026;-71
2022/09/03 10:51:13;;;;;;;3.00;2.80;;;25.60;76.90;;;;;;4981141;28;20061;-71
2022/09/03 10:53:48;;;;;;;3.10;2.80;;;25.70;76.90;;;;;;5035361;28;20046;-72
2022/09/03 10:56:40;;;;;;;2.78;2.58;;;25.80;78.70;;;;;;5035152;28;20045;-72
2022/09/03 10:59:18;;;;;;;2.67;2.45;;;25.90;78.80;;;;;;4989188;28;20029;-73
2022/09/03 11:02:05;;;;;;;3.13;2.30;;;26.00;77.70;;;;;;5035568;28;20021;-71
2022/09/03 11:04:43;;;;;;;2.40;2.20;;;26.30;76.10;;;;;;5034202;28;20033;-71
2022/09/03 11:07:12;;;;;;;2.47;2.28;;;26.50;75.60;;;;;;5035141;28;20095;-70
2022/09/03 11:09:56;;;;;;;3.33;2.58;;;26.60;76.70;;;;;;5034995;28;20029;-70
2022/09/03 11:12:30;;;;;;;3.30;3.00;;;26.60;74.00;;;;;;5035020;28;20027;-71
2022/09/03 11:15:10;;;;;;;2.38;2.20;;;26.40;75.20;;;;;;5034998;28;20028;-73
2022/09/03 11:17:47;;;;;;;2.55;2.35;;;26.50;75.00;;;;;;5034871;28;20479;-73
2022/09/03 11:20:13;;;;;;;2.50;2.30;;;26.60;75.30;;;;;;5017145;28;20053;-72
2022/09/03 11:22:42;;;;;;;2.47;2.28;;;26.60;75.70;;;;;;5034802;28;20057;-72
2022/09/03 11:25:12;;;;;;;2.28;2.08;;;26.90;77.00;;;;;;5034818;28;20064;-70
2022/09/03 11:27:41;;;;;;;2.60;2.40;;;27.30;75.40;;;;;;5034715;28;20513;-71
2022/09/03 11:30:10;;;;;;;2.92;2.40;;;27.50;72.10;;;;;;5034629;28;20030;-71
2022/09/03 11:32:59;;;;;;;2.95;2.50;;;27.80;74.70;;;;;;5016855;28;20021;-71
2022/09/03 11:35:40;;;;;;;2.30;2.10;;;28.20;75.20;;;;;;5034468;28;20498;-72
2022/09/03 11:38:19;;;;;;;2.20;1.90;;;28.80;73.90;;;;;;5034514;28;20064;-70
2022/09/03 11:41:02;;;;;;;1.98;1.77;;;29.40;68.10;;;;;;5034494;28;20033;-69
2022/09/03 11:43:33;;;;;;;2.35;2.15;;;29.80;68.80;;;;;;5034318;28;20026;-71
2022/09/03 11:46:20;;;;;;;2.67;2.47;;;30.30;73.60;;;;;;5016584;28;20045;-72
2022/09/03 11:48:55;;;;;;;2.53;2.30;;;30.50;67.10;;;;;;5034278;28;20064;-71
2022/09/03 11:51:30;;;;;;;2.60;2.40;;;30.40;70.10;;;;;;5016378;28;20037;-72
2022/09/03 11:54:00;;;;;;;4.00;3.05;;;30.50;66.10;;;;;;5034213;28;20025;-70
2022/09/03 11:56:26;;;;;;;2.92;2.72;;;30.40;69.60;;;;;;5034037;28;20152;-70
2022/09/03 11:59:14;;;;;;;2.53;2.33;;;30.30;70.20;;;;;;5034411;28;20022;-70
2022/09/03 12:02:00;;;;;;;2.13;2.03;;;30.60;67.70;;;;;;5034252;28;20471;-70
2022/09/03 12:04:51;;;;;;;2.58;2.30;;;30.80;65.80;;;;;;5034190;28;20067;-70
2022/09/03 12:07:49;;;;;;;2.80;2.60;;;30.70;64.90;;;;;;5016148;28;20032;-69
2022/09/03 12:10:37;;;;;;;2.70;2.50;;;30.60;62.40;;;;;;4948507;28;20119;-72
2022/09/03 12:13:11;;;;;;;2.70;2.50;;;30.60;65.70;;;;;;5033854;28;20034;-69
2022/09/03 12:16:04;;;;;;;4.05;2.10;;;30.90;66.20;;;;;;5033867;28;20029;-71
2022/09/03 12:18:32;;;;;;;2.58;2.38;;;31.20;63.30;;;;;;5033805;28;20033;-72
2022/09/03 12:20:58;;;;;;;2.22;2.13;;;31.30;65.90;;;;;;5033857;28;20057;-71
2022/09/03 12:23:31;;;;;;;2.38;2.28;;;31.40;65.80;;;;;;5033634;28;20043;-71
2022/09/03 12:26:06;;;;;;;2.40;2.20;;;31.40;64.20;;;;;;5033721;28;20383;-70
2022/09/03 12:28:38;;;;;;;2.35;2.13;;;31.30;65.10;;;;;;5033761;28;20444;-72
2022/09/03 12:31:20;;;;;;;2.90;2.70;;;30.90;65.30;;;;;;5033549;28;20030;-72
2022/09/03 12:34:01;;;;;;;3.30;3.00;;;30.60;63.70;;;;;;5033808;28;20380;-70
2022/09/03 12:36:42;;;;;;;2.58;2.30;;;30.10;63.00;;;;;;5033540;28;20032;-70
2022/09/03 12:39:22;;;;;;;2.95;2.75;;;30.20;65.40;;;;;;5015811;28;20567;-72
2022/09/03 12:42:06;;;;;;;3.70;2.97;;;30.40;65.10;;;;;;5033502;28;20068;-72
2022/09/03 12:44:34;;;;;;;2.80;2.60;;;30.00;61.50;;;;;;5033443;28;20017;-70
2022/09/03 12:47:16;;;;;;;2.95;2.75;;;30.00;63.90;;;;;;5033381;28;20391;-71
2022/09/03 12:49:43;;;;;;;2.70;2.50;;;29.90;60.10;;;;;;5033242;28;20028;-71
2022/09/03 12:52:15;;;;;;;3.03;2.83;;;29.60;64.20;;;;;;5015553;28;20039;-71
2022/09/03 12:55:14;;;;;;;2.83;2.63;;;29.50;63.30;;;;;;5015418;28;20021;-70
2022/09/03 12:57:54;;;;;;;3.40;3.10;;;29.50;65.30;;;;;;5033390;28;20024;-71
2022/09/03 13:00:20;;;;;;;3.53;3.22;;;29.90;62.20;;;;;;5033283;28;20033;-72
2022/09/03 13:03:01;;;;;;;3.05;2.85;;;29.90;62.40;;;;;;5033282;28;20026;-71
2022/09/03 13:05:58;;;;;;;2.80;2.60;;;29.90;63.60;;;;;;5033150;28;20022;-69
2022/09/03 13:08:32;;;;;;;2.40;2.30;;;29.70;62.70;;;;;;5013750;28;20098;-70
2022/09/03 13:11:05;;;;;;;3.08;2.88;;;29.50;60.60;;;;;;5033151;28;20491;-70
2022/09/03 13:13:33;;;;;;;2.50;2.40;;;29.60;62.30;;;;;;5033062;28;20025;-72
2022/09/03 13:16:01;;;;;;;2.97;2.78;;;29.70;61.90;;;;;;5033168;28;20383;-71